sensor_id;sensor_type;location;lat;lon;timestamp;P1;durP1;ratioP1;P2;durP2;ratioP2
4244;SDS011;2136;48.502;9.194;2024-02-04T00:00:45;1.60;;;1.50;;
4244;SDS011;2136;48.502;9.194;2024-02-04T00:03:12;1.33;;;1.23;;
4244;SDS011;2136;48.502;9.194;2024-02-04T00:05:39;1.83;;;1.50;;
4244;SDS011;2136;48.502;9.194;2024-02-04T00:08:06;1.87;;;1.50;;
4244;SDS011;2136;48.502;9.194;2024-02-04T00:10:33;1.57;;;1.17;;
4244;SDS011;2136;48.502;9.194;2024-02-04T00:13:00;1.20;;;1.20;;
4244;SDS011;2136;48.502;9.194;2024-02-04T00:15:26;1.53;;;1.43;;
4244;SDS011;2136;48.502;9.194;2024-02-04T00:17:54;2.73;;;2.20;;
4244;SDS011;2136;48.502;9.194;2024-02-04T00:20:21;1.70;;;1.60;;
4244;SDS011;2136;48.502;9.194;2024-02-04T00:22:50;1.43;;;1.33;;
4244;SDS011;2136;48.502;9.194;2024-02-04T00:25:17;2.23;;;1.93;;
4244;SDS011;2136;48.502;9.194;2024-02-04T00:27:44;1.43;;;1.33;;
4244;SDS011;2136;48.502;9.194;2024-02-04T00:30:11;1.50;;;1.40;;
4244;SDS011;2136;48.502;9.194;2024-02-04T00:32:38;1.30;;;1.20;;
4244;SDS011;2136;48.502;9.194;2024-02-04T00:35:06;2.10;;;1.80;;
4244;SDS011;2136;48.502;9.194;2024-02-04T00:37:34;1.27;;;1.27;;
4244;SDS011;2136;48.502;9.194;2024-02-04T00:40:00;2.30;;;1.43;;
4244;SDS011;2136;48.502;9.194;2024-02-04T00:42:27;1.60;;;1.50;;
4244;SDS011;2136;48.502;9.194;2024-02-04T00:44:54;2.37;;;1.90;;
4244;SDS011;2136;48.502;9.194;2024-02-04T00:47:21;1.30;;;1.20;;
4244;SDS011;2136;48.502;9.194;2024-02-04T00:49:47;2.27;;;2.03;;
4244;SDS011;2136;48.502;9.194;2024-02-04T00:52:16;1.67;;;1.57;;
4244;SDS011;2136;48.502;9.194;2024-02-04T00:54:42;1.80;;;1.70;;
4244;SDS011;2136;48.502;9.194;2024-02-04T00:57:09;1.50;;;1.40;;
4244;SDS011;2136;48.502;9.194;2024-02-04T00:59:36;1.50;;;1.40;;
4244;SDS011;2136;48.502;9.194;2024-02-04T01:02:03;1.40;;;1.30;;
4244;SDS011;2136;48.502;9.194;2024-02-04T01:04:29;1.70;;;1.40;;
4244;SDS011;2136;48.502;9.194;2024-02-04T01:06:56;1.40;;;1.30;;
4244;SDS011;2136;48.502;9.194;2024-02-04T01:09:24;1.10;;;1.10;;
4244;SDS011;2136;48.502;9.194;2024-02-04T01:11:51;1.40;;;1.30;;
4244;SDS011;2136;48.502;9.194;2024-02-04T01:14:18;1.73;;;1.63;;
4244;SDS011;2136;48.502;9.194;2024-02-04T01:16:45;1.33;;;1.23;;
4244;SDS011;2136;48.502;9.194;2024-02-04T01:19:12;1.50;;;1.30;;
4244;SDS011;2136;48.502;9.194;2024-02-04T01:21:39;1.23;;;1.13;;
4244;SDS011;2136;48.502;9.194;2024-02-04T01:24:05;1.37;;;1.00;;
4244;SDS011;2136;48.502;9.194;2024-02-04T01:26:33;1.50;;;1.27;;
4244;SDS011;2136;48.502;9.194;2024-02-04T01:29:00;1.47;;;1.30;;
4244;SDS011;2136;48.502;9.194;2024-02-04T01:31:27;1.30;;;1.13;;
4244;SDS011;2136;48.502;9.194;2024-02-04T01:33:54;1.30;;;1.20;;
4244;SDS011;2136;48.502;9.194;2024-02-04T01:36:21;1.30;;;1.20;;
4244;SDS011;2136;48.502;9.194;2024-02-04T01:38:47;1.10;;;1.10;;
4244;SDS011;2136;48.502;9.194;2024-02-04T01:41:14;1.20;;;1.17;;
4244;SDS011;2136;48.502;9.194;2024-02-04T01:43:42;1.73;;;1.20;;
4244;SDS011;2136;48.502;9.194;2024-02-04T01:46:09;1.20;;;1.10;;
4244;SDS011;2136;48.502;9.194;2024-02-04T01:48:36;1.90;;;1.70;;
4244;SDS011;2136;48.502;9.194;2024-02-04T01:51:04;1.20;;;1.10;;
4244;SDS011;2136;48.502;9.194;2024-02-04T01:53:31;1.03;;;1.03;;
4244;SDS011;2136;48.502;9.194;2024-02-04T01:56:00;1.47;;;1.37;;
4244;SDS011;2136;48.502;9.194;2024-02-04T01:58:27;1.40;;;1.30;;
4244;SDS011;2136;48.502;9.194;2024-02-04T02:00:56;1.20;;;1.10;;
4244;SDS011;2136;48.502;9.194;2024-02-04T02:03:23;1.90;;;1.40;;
4244;SDS011;2136;48.502;9.194;2024-02-04T02:05:52;1.30;;;1.20;;
4244;SDS011;2136;48.502;9.194;2024-02-04T02:08:20;1.80;;;1.70;;
4244;SDS011;2136;48.502;9.194;2024-02-04T02:10:47;1.50;;;1.40;;
4244;SDS011;2136;48.502;9.194;2024-02-04T02:13:16;1.10;;;1.10;;
4244;SDS011;2136;48.502;9.194;2024-02-04T02:15:49;1.60;;;1.50;;
4244;SDS011;2136;48.502;9.194;2024-02-04T02:18:23;1.17;;;1.17;;
4244;SDS011;2136;48.502;9.194;2024-02-04T02:21:02;1.67;;;1.53;;
4244;SDS011;2136;48.502;9.194;2024-02-04T02:23:43;1.40;;;1.30;;
4244;SDS011;2136;48.502;9.194;2024-02-04T02:26:21;1.30;;;1.23;;
4244;SDS011;2136;48.502;9.194;2024-02-04T02:28:49;1.10;;;1.00;;
4244;SDS011;2136;48.502;9.194;2024-02-04T02:31:15;2.70;;;1.60;;
4244;SDS011;2136;48.502;9.194;2024-02-04T02:33:42;1.50;;;1.40;;
4244;SDS011;2136;48.502;9.194;2024-02-04T02:36:10;1.43;;;1.20;;
4244;SDS011;2136;48.502;9.194;2024-02-04T02:38:44;1.27;;;1.27;;
4244;SDS011;2136;48.502;9.194;2024-02-04T02:41:18;4.93;;;1.53;;
4244;SDS011;2136;48.502;9.194;2024-02-04T02:43:48;1.50;;;1.40;;
4244;SDS011;2136;48.502;9.194;2024-02-04T02:46:18;1.10;;;1.10;;
4244;SDS011;2136;48.502;9.194;2024-02-04T02:48:45;1.60;;;1.50;;
4244;SDS011;2136;48.502;9.194;2024-02-04T02:51:12;1.40;;;1.30;;
4244;SDS011;2136;48.502;9.194;2024-02-04T02:53:39;1.23;;;1.13;;
4244;SDS011;2136;48.502;9.194;2024-02-04T02:56:05;1.23;;;1.13;;
4244;SDS011;2136;48.502;9.194;2024-02-04T02:58:34;1.50;;;1.40;;
4244;SDS011;2136;48.502;9.194;2024-02-04T03:01:01;1.00;;;1.00;;
4244;SDS011;2136;48.502;9.194;2024-02-04T03:03:29;2.13;;;1.87;;
4244;SDS011;2136;48.502;9.194;2024-02-04T03:05:55;1.40;;;1.30;;
4244;SDS011;2136;48.502;9.194;2024-02-04T03:08:22;1.20;;;1.20;;
4244;SDS011;2136;48.502;9.194;2024-02-04T03:10:49;1.20;;;1.10;;
4244;SDS011;2136;48.502;9.194;2024-02-04T03:13:17;1.77;;;1.30;;
4244;SDS011;2136;48.502;9.194;2024-02-04T03:15:46;1.30;;;1.20;;
4244;SDS011;2136;48.502;9.194;2024-02-04T03:18:13;1.00;;;1.00;;
4244;SDS011;2136;48.502;9.194;2024-02-04T03:20:39;1.70;;;1.60;;
4244;SDS011;2136;48.502;9.194;2024-02-04T03:23:06;1.07;;;1.07;;
4244;SDS011;2136;48.502;9.194;2024-02-04T03:25:33;1.10;;;1.00;;
4244;SDS011;2136;48.502;9.194;2024-02-04T03:28:00;1.23;;;1.13;;
4244;SDS011;2136;48.502;9.194;2024-02-04T03:30:26;1.27;;;1.17;;
4244;SDS011;2136;48.502;9.194;2024-02-04T03:32:54;1.07;;;1.07;;
4244;SDS011;2136;48.502;9.194;2024-02-04T03:35:21;1.37;;;1.27;;
4244;SDS011;2136;48.502;9.194;2024-02-04T03:37:48;1.40;;;1.30;;
4244;SDS011;2136;48.502;9.194;2024-02-04T03:40:15;0.90;;;0.90;;
4244;SDS011;2136;48.502;9.194;2024-02-04T03:42:44;0.97;;;0.93;;
4244;SDS011;2136;48.502;9.194;2024-02-04T03:45:11;1.63;;;1.40;;
4244;SDS011;2136;48.502;9.194;2024-02-04T03:47:37;1.47;;;1.20;;
4244;SDS011;2136;48.502;9.194;2024-02-04T03:50:06;1.00;;;1.00;;
4244;SDS011;2136;48.502;9.194;2024-02-04T03:52:33;2.17;;;1.10;;
4244;SDS011;2136;48.502;9.194;2024-02-04T03:55:00;0.97;;;0.97;;
4244;SDS011;2136;48.502;9.194;2024-02-04T03:57:27;1.50;;;1.40;;
4244;SDS011;2136;48.502;9.194;2024-02-04T03:59:54;1.50;;;1.40;;
4244;SDS011;2136;48.502;9.194;2024-02-04T04:02:20;1.20;;;1.20;;
4244;SDS011;2136;48.502;9.194;2024-02-04T04:04:47;1.43;;;1.33;;
4244;SDS011;2136;48.502;9.194;2024-02-04T04:07:15;1.10;;;1.10;;
4244;SDS011;2136;48.502;9.194;2024-02-04T04:09:42;1.93;;;1.60;;
4244;SDS011;2136;48.502;9.194;2024-02-04T04:12:09;1.40;;;1.30;;
4244;SDS011;2136;48.502;9.194;2024-02-04T04:14:36;1.23;;;1.13;;
4244;SDS011;2136;48.502;9.194;2024-02-04T04:17:02;1.60;;;1.50;;
4244;SDS011;2136;48.502;9.194;2024-02-04T04:19:29;1.10;;;1.10;;
4244;SDS011;2136;48.502;9.194;2024-02-04T04:21:58;1.03;;;1.03;;
4244;SDS011;2136;48.502;9.194;2024-02-04T04:24:27;1.17;;;1.07;;
4244;SDS011;2136;48.502;9.194;2024-02-04T04:26:54;0.80;;;0.80;;
4244;SDS011;2136;48.502;9.194;2024-02-04T04:29:21;1.20;;;1.20;;
4244;SDS011;2136;48.502;9.194;2024-02-04T04:31:48;1.13;;;1.10;;
4244;SDS011;2136;48.502;9.194;2024-02-04T04:34:14;0.90;;;0.90;;
4244;SDS011;2136;48.502;9.194;2024-02-04T04:36:43;1.20;;;1.10;;
4244;SDS011;2136;48.502;9.194;2024-02-04T04:39:10;1.10;;;1.10;;
4244;SDS011;2136;48.502;9.194;2024-02-04T04:41:38;1.00;;;1.00;;
4244;SDS011;2136;48.502;9.194;2024-02-04T04:44:05;0.90;;;0.90;;
4244;SDS011;2136;48.502;9.194;2024-02-04T04:46:32;1.20;;;1.10;;
4244;SDS011;2136;48.502;9.194;2024-02-04T04:48:59;0.87;;;0.87;;
4244;SDS011;2136;48.502;9.194;2024-02-04T04:51:26;0.97;;;0.80;;
4244;SDS011;2136;48.502;9.194;2024-02-04T04:53:53;1.10;;;1.00;;
4244;SDS011;2136;48.502;9.194;2024-02-04T04:56:19;1.00;;;1.00;;
4244;SDS011;2136;48.502;9.194;2024-02-04T04:58:48;1.00;;;1.00;;
4244;SDS011;2136;48.502;9.194;2024-02-04T05:01:15;1.13;;;1.03;;
4244;SDS011;2136;48.502;9.194;2024-02-04T05:03:42;1.03;;;1.00;;
4244;SDS011;2136;48.502;9.194;2024-02-04T05:06:08;0.83;;;0.83;;
4244;SDS011;2136;48.502;9.194;2024-02-04T05:08:35;2.40;;;1.03;;
4244;SDS011;2136;48.502;9.194;2024-02-04T05:11:02;1.53;;;1.10;;
4244;SDS011;2136;48.502;9.194;2024-02-04T05:13:29;0.93;;;0.90;;
4244;SDS011;2136;48.502;9.194;2024-02-04T05:15:57;0.70;;;0.70;;
4244;SDS011;2136;48.502;9.194;2024-02-04T05:18:24;0.90;;;0.90;;
4244;SDS011;2136;48.502;9.194;2024-02-04T05:20:52;1.00;;;1.00;;
4244;SDS011;2136;48.502;9.194;2024-02-04T05:23:18;0.90;;;0.90;;
4244;SDS011;2136;48.502;9.194;2024-02-04T05:25:45;1.30;;;1.20;;
4244;SDS011;2136;48.502;9.194;2024-02-04T05:28:12;1.60;;;1.37;;
4244;SDS011;2136;48.502;9.194;2024-02-04T05:30:39;0.90;;;0.90;;
4244;SDS011;2136;48.502;9.194;2024-02-04T05:33:07;1.63;;;1.10;;
4244;SDS011;2136;48.502;9.194;2024-02-04T05:35:33;0.90;;;0.90;;
4244;SDS011;2136;48.502;9.194;2024-02-04T05:38:02;1.00;;;1.00;;
4244;SDS011;2136;48.502;9.194;2024-02-04T05:40:29;1.00;;;1.00;;
4244;SDS011;2136;48.502;9.194;2024-02-04T05:42:56;1.20;;;1.10;;
4244;SDS011;2136;48.502;9.194;2024-02-04T05:45:22;2.10;;;1.10;;
4244;SDS011;2136;48.502;9.194;2024-02-04T05:47:49;2.20;;;1.00;;
4244;SDS011;2136;48.502;9.194;2024-02-04T05:50:17;1.17;;;1.07;;
4244;SDS011;2136;48.502;9.194;2024-02-04T05:52:44;0.93;;;0.90;;
4244;SDS011;2136;48.502;9.194;2024-02-04T05:55:11;0.87;;;0.87;;
4244;SDS011;2136;48.502;9.194;2024-02-04T05:57:38;1.03;;;1.00;;
4244;SDS011;2136;48.502;9.194;2024-02-04T06:00:05;1.10;;;1.10;;
4244;SDS011;2136;48.502;9.194;2024-02-04T06:02:35;1.20;;;1.10;;
4244;SDS011;2136;48.502;9.194;2024-02-04T06:05:02;1.20;;;1.17;;
4244;SDS011;2136;48.502;9.194;2024-02-04T06:07:30;1.20;;;1.20;;
4244;SDS011;2136;48.502;9.194;2024-02-04T06:09:57;0.90;;;0.90;;
4244;SDS011;2136;48.502;9.194;2024-02-04T06:12:25;1.00;;;1.00;;
4244;SDS011;2136;48.502;9.194;2024-02-04T06:14:52;1.83;;;1.20;;
4244;SDS011;2136;48.502;9.194;2024-02-04T06:17:18;1.37;;;1.23;;
4244;SDS011;2136;48.502;9.194;2024-02-04T06:19:45;3.50;;;2.47;;
4244;SDS011;2136;48.502;9.194;2024-02-04T06:22:12;1.17;;;1.03;;
4244;SDS011;2136;48.502;9.194;2024-02-04T06:24:41;1.03;;;0.93;;
4244;SDS011;2136;48.502;9.194;2024-02-04T06:27:08;1.03;;;0.80;;
4244;SDS011;2136;48.502;9.194;2024-02-04T06:29:36;0.90;;;0.90;;
4244;SDS011;2136;48.502;9.194;2024-02-04T06:32:04;0.90;;;0.80;;
4244;SDS011;2136;48.502;9.194;2024-02-04T06:34:31;0.87;;;0.87;;
4244;SDS011;2136;48.502;9.194;2024-02-04T06:36:58;1.13;;;1.03;;
4244;SDS011;2136;48.502;9.194;2024-02-04T06:39:25;0.80;;;0.80;;
4244;SDS011;2136;48.502;9.194;2024-02-04T06:41:53;0.90;;;0.90;;
4244;SDS011;2136;48.502;9.194;2024-02-04T06:44:20;1.10;;;1.00;;
4244;SDS011;2136;48.502;9.194;2024-02-04T06:46:47;1.20;;;1.10;;
4244;SDS011;2136;48.502;9.194;2024-02-04T06:49:14;1.00;;;1.00;;
4244;SDS011;2136;48.502;9.194;2024-02-04T06:51:43;1.10;;;1.00;;
4244;SDS011;2136;48.502;9.194;2024-02-04T06:54:10;1.73;;;1.13;;
4244;SDS011;2136;48.502;9.194;2024-02-04T06:56:37;1.20;;;1.00;;
4244;SDS011;2136;48.502;9.194;2024-02-04T06:59:05;0.97;;;0.90;;
4244;SDS011;2136;48.502;9.194;2024-02-04T07:01:32;1.23;;;1.13;;
4244;SDS011;2136;48.502;9.194;2024-02-04T07:03:59;0.80;;;0.80;;
4244;SDS011;2136;48.502;9.194;2024-02-04T07:06:25;0.90;;;0.90;;
4244;SDS011;2136;48.502;9.194;2024-02-04T07:08:52;1.00;;;1.00;;
4244;SDS011;2136;48.502;9.194;2024-02-04T07:11:19;1.03;;;1.03;;
4244;SDS011;2136;48.502;9.194;2024-02-04T07:13:46;1.10;;;1.10;;
4244;SDS011;2136;48.502;9.194;2024-02-04T07:16:14;1.27;;;1.20;;
4244;SDS011;2136;48.502;9.194;2024-02-04T07:18:41;1.93;;;1.30;;
4244;SDS011;2136;48.502;9.194;2024-02-04T07:21:07;1.77;;;1.67;;
4244;SDS011;2136;48.502;9.194;2024-02-04T07:23:34;1.10;;;1.10;;
4244;SDS011;2136;48.502;9.194;2024-02-04T07:26:01;1.40;;;1.30;;
4244;SDS011;2136;48.502;9.194;2024-02-04T07:28:28;1.40;;;1.30;;
4244;SDS011;2136;48.502;9.194;2024-02-04T07:30:54;2.27;;;1.10;;
4244;SDS011;2136;48.502;9.194;2024-02-04T07:33:23;1.10;;;1.10;;
4244;SDS011;2136;48.502;9.194;2024-02-04T07:35:50;1.10;;;1.00;;
4244;SDS011;2136;48.502;9.194;2024-02-04T07:38:16;3.30;;;1.53;;
4244;SDS011;2136;48.502;9.194;2024-02-04T07:40:43;1.13;;;1.10;;
4244;SDS011;2136;48.502;9.194;2024-02-04T07:43:10;1.90;;;1.27;;
4244;SDS011;2136;48.502;9.194;2024-02-04T07:45:37;1.37;;;1.10;;
4244;SDS011;2136;48.502;9.194;2024-02-04T07:48:04;2.20;;;1.20;;
4244;SDS011;2136;48.502;9.194;2024-02-04T07:50:32;1.30;;;1.17;;
4244;SDS011;2136;48.502;9.194;2024-02-04T07:52:59;1.40;;;1.30;;
4244;SDS011;2136;48.502;9.194;2024-02-04T07:55:26;0.93;;;0.90;;
4244;SDS011;2136;48.502;9.194;2024-02-04T07:57:53;1.30;;;1.20;;
4244;SDS011;2136;48.502;9.194;2024-02-04T08:00:20;4.40;;;1.33;;
4244;SDS011;2136;48.502;9.194;2024-02-04T08:02:46;1.93;;;1.63;;
4244;SDS011;2136;48.502;9.194;2024-02-04T08:05:13;1.97;;;1.20;;
4244;SDS011;2136;48.502;9.194;2024-02-04T08:07:41;1.47;;;1.40;;
4244;SDS011;2136;48.502;9.194;2024-02-04T08:10:08;1.10;;;1.07;;
4244;SDS011;2136;48.502;9.194;2024-02-04T08:12:35;1.20;;;1.10;;
4244;SDS011;2136;48.502;9.194;2024-02-04T08:15:02;1.83;;;1.10;;
4244;SDS011;2136;48.502;9.194;2024-02-04T08:17:30;1.30;;;1.20;;
4244;SDS011;2136;48.502;9.194;2024-02-04T08:19:58;1.30;;;1.20;;
4244;SDS011;2136;48.502;9.194;2024-02-04T08:22:24;1.00;;;1.00;;
4244;SDS011;2136;48.502;9.194;2024-02-04T08:24:52;1.73;;;1.27;;
4244;SDS011;2136;48.502;9.194;2024-02-04T08:27:19;0.90;;;0.90;;
4244;SDS011;2136;48.502;9.194;2024-02-04T08:29:46;0.90;;;0.80;;
4244;SDS011;2136;48.502;9.194;2024-02-04T08:32:13;1.00;;;1.00;;
4244;SDS011;2136;48.502;9.194;2024-02-04T08:34:40;1.20;;;1.10;;
4244;SDS011;2136;48.502;9.194;2024-02-04T08:37:07;0.90;;;0.90;;
4244;SDS011;2136;48.502;9.194;2024-02-04T08:39:33;0.90;;;0.90;;
4244;SDS011;2136;48.502;9.194;2024-02-04T08:42:02;1.20;;;1.10;;
4244;SDS011;2136;48.502;9.194;2024-02-04T08:44:29;0.90;;;0.90;;
4244;SDS011;2136;48.502;9.194;2024-02-04T08:46:55;1.20;;;1.10;;
4244;SDS011;2136;48.502;9.194;2024-02-04T08:49:23;1.00;;;1.00;;
4244;SDS011;2136;48.502;9.194;2024-02-04T08:51:49;0.90;;;0.90;;
4244;SDS011;2136;48.502;9.194;2024-02-04T08:54:16;1.17;;;1.07;;
4244;SDS011;2136;48.502;9.194;2024-02-04T08:56:43;0.73;;;0.73;;
4244;SDS011;2136;48.502;9.194;2024-02-04T08:59:12;0.83;;;0.83;;
4244;SDS011;2136;48.502;9.194;2024-02-04T09:01:37;0.90;;;0.90;;
4244;SDS011;2136;48.502;9.194;2024-02-04T09:04:04;1.23;;;1.03;;
4244;SDS011;2136;48.502;9.194;2024-02-04T09:06:31;1.20;;;1.10;;
4244;SDS011;2136;48.502;9.194;2024-02-04T09:08:58;0.97;;;0.93;;
4244;SDS011;2136;48.502;9.194;2024-02-04T09:11:24;1.33;;;1.00;;
4244;SDS011;2136;48.502;9.194;2024-02-04T09:13:51;1.03;;;1.03;;
4244;SDS011;2136;48.502;9.194;2024-02-04T09:16:19;1.63;;;1.00;;
4244;SDS011;2136;48.502;9.194;2024-02-04T09:18:46;0.93;;;0.93;;
4244;SDS011;2136;48.502;9.194;2024-02-04T09:21:13;2.23;;;1.00;;
4244;SDS011;2136;48.502;9.194;2024-02-04T09:23:40;1.10;;;1.10;;
4244;SDS011;2136;48.502;9.194;2024-02-04T09:26:07;0.90;;;0.90;;
4244;SDS011;2136;48.502;9.194;2024-02-04T09:28:34;1.30;;;0.90;;
4244;SDS011;2136;48.502;9.194;2024-02-04T09:31:02;2.43;;;0.77;;
4244;SDS011;2136;48.502;9.194;2024-02-04T09:33:30;1.10;;;1.00;;
4244;SDS011;2136;48.502;9.194;2024-02-04T09:35:57;1.70;;;1.00;;
4244;SDS011;2136;48.502;9.194;2024-02-04T09:38:24;1.10;;;1.00;;
4244;SDS011;2136;48.502;9.194;2024-02-04T09:40:51;3.97;;;1.23;;
4244;SDS011;2136;48.502;9.194;2024-02-04T09:43:18;0.90;;;0.90;;
4244;SDS011;2136;48.502;9.194;2024-02-04T09:45:45;0.80;;;0.80;;
4244;SDS011;2136;48.502;9.194;2024-02-04T09:48:14;1.10;;;0.97;;
4244;SDS011;2136;48.502;9.194;2024-02-04T09:50:46;1.10;;;1.10;;
4244;SDS011;2136;48.502;9.194;2024-02-04T09:53:14;0.97;;;0.97;;
4244;SDS011;2136;48.502;9.194;2024-02-04T09:55:44;1.73;;;1.00;;
4244;SDS011;2136;48.502;9.194;2024-02-04T09:58:12;4.00;;;1.17;;
4244;SDS011;2136;48.502;9.194;2024-02-04T10:00:39;1.80;;;0.90;;
4244;SDS011;2136;48.502;9.194;2024-02-04T10:03:10;0.80;;;0.80;;
4244;SDS011;2136;48.502;9.194;2024-02-04T10:05:37;1.13;;;0.90;;
4244;SDS011;2136;48.502;9.194;2024-02-04T10:08:05;1.83;;;1.73;;
4244;SDS011;2136;48.502;9.194;2024-02-04T10:10:32;1.10;;;1.00;;
4244;SDS011;2136;48.502;9.194;2024-02-04T10:13:04;1.07;;;0.90;;
4244;SDS011;2136;48.502;9.194;2024-02-04T10:15:32;1.30;;;1.20;;
4244;SDS011;2136;48.502;9.194;2024-02-04T10:17:59;2.53;;;0.83;;
4244;SDS011;2136;48.502;9.194;2024-02-04T10:20:29;1.60;;;1.00;;
4244;SDS011;2136;48.502;9.194;2024-02-04T10:22:56;0.90;;;0.80;;
4244;SDS011;2136;48.502;9.194;2024-02-04T10:25:24;1.63;;;1.57;;
4244;SDS011;2136;48.502;9.194;2024-02-04T10:27:51;0.80;;;0.80;;
4244;SDS011;2136;48.502;9.194;2024-02-04T10:30:19;0.73;;;0.73;;
4244;SDS011;2136;48.502;9.194;2024-02-04T10:32:46;0.70;;;0.70;;
4244;SDS011;2136;48.502;9.194;2024-02-04T10:35:13;0.80;;;0.80;;
4244;SDS011;2136;48.502;9.194;2024-02-04T10:37:40;1.00;;;0.90;;
4244;SDS011;2136;48.502;9.194;2024-02-04T10:40:07;1.33;;;1.00;;
4244;SDS011;2136;48.502;9.194;2024-02-04T10:42:35;0.70;;;0.70;;
4244;SDS011;2136;48.502;9.194;2024-02-04T10:45:06;0.60;;;0.60;;
4244;SDS011;2136;48.502;9.194;2024-02-04T10:47:36;1.73;;;1.63;;
4244;SDS011;2136;48.502;9.194;2024-02-04T10:50:04;0.80;;;0.80;;
4244;SDS011;2136;48.502;9.194;2024-02-04T10:52:35;0.67;;;0.63;;
4244;SDS011;2136;48.502;9.194;2024-02-04T10:55:04;0.73;;;0.73;;
4244;SDS011;2136;48.502;9.194;2024-02-04T10:57:33;0.70;;;0.70;;
4244;SDS011;2136;48.502;9.194;2024-02-04T11:00:03;0.70;;;0.70;;
4244;SDS011;2136;48.502;9.194;2024-02-04T11:02:34;0.70;;;0.70;;
4244;SDS011;2136;48.502;9.194;2024-02-04T11:05:01;0.80;;;0.80;;
4244;SDS011;2136;48.502;9.194;2024-02-04T11:07:30;0.90;;;0.90;;
4244;SDS011;2136;48.502;9.194;2024-02-04T11:09:58;1.17;;;1.00;;
4244;SDS011;2136;48.502;9.194;2024-02-04T11:12:26;1.87;;;0.70;;
4244;SDS011;2136;48.502;9.194;2024-02-04T11:14:57;0.80;;;0.67;;
4244;SDS011;2136;48.502;9.194;2024-02-04T11:17:42;0.60;;;0.60;;
4244;SDS011;2136;48.502;9.194;2024-02-04T11:20:28;2.60;;;0.63;;
4244;SDS011;2136;48.502;9.194;2024-02-04T11:25:54;1.83;;;0.63;;
4244;SDS011;2136;48.502;9.194;2024-02-04T11:28:23;1.07;;;0.70;;
4244;SDS011;2136;48.502;9.194;2024-02-04T11:30:53;1.63;;;0.80;;
4244;SDS011;2136;48.502;9.194;2024-02-04T11:33:21;0.70;;;0.70;;
4244;SDS011;2136;48.502;9.194;2024-02-04T11:35:58;0.70;;;0.70;;
4244;SDS011;2136;48.502;9.194;2024-02-04T11:38:29;2.30;;;0.60;;
4244;SDS011;2136;48.502;9.194;2024-02-04T11:40:57;1.43;;;0.77;;
4244;SDS011;2136;48.502;9.194;2024-02-04T11:43:24;0.77;;;0.77;;
4244;SDS011;2136;48.502;9.194;2024-02-04T11:45:52;0.60;;;0.60;;
4244;SDS011;2136;48.502;9.194;2024-02-04T11:48:20;0.70;;;0.70;;
4244;SDS011;2136;48.502;9.194;2024-02-04T11:50:54;0.67;;;0.67;;
4244;SDS011;2136;48.502;9.194;2024-02-04T11:53:23;1.10;;;0.73;;
4244;SDS011;2136;48.502;9.194;2024-02-04T11:55:53;0.80;;;0.70;;
4244;SDS011;2136;48.502;9.194;2024-02-04T11:58:20;0.70;;;0.60;;
4244;SDS011;2136;48.502;9.194;2024-02-04T12:00:47;0.67;;;0.67;;
4244;SDS011;2136;48.502;9.194;2024-02-04T12:03:15;1.17;;;0.60;;
4244;SDS011;2136;48.502;9.194;2024-02-04T12:05:42;0.60;;;0.60;;
4244;SDS011;2136;48.502;9.194;2024-02-04T12:08:10;0.93;;;0.93;;
4244;SDS011;2136;48.502;9.194;2024-02-04T12:10:38;0.70;;;0.70;;
4244;SDS011;2136;48.502;9.194;2024-02-04T12:13:06;0.70;;;0.70;;
4244;SDS011;2136;48.502;9.194;2024-02-04T12:15:33;1.07;;;0.90;;
4244;SDS011;2136;48.502;9.194;2024-02-04T12:18:07;0.67;;;0.67;;
4244;SDS011;2136;48.502;9.194;2024-02-04T12:20:36;0.60;;;0.60;;
4244;SDS011;2136;48.502;9.194;2024-02-04T12:23:04;2.10;;;0.80;;
4244;SDS011;2136;48.502;9.194;2024-02-04T12:25:32;0.80;;;0.63;;
4244;SDS011;2136;48.502;9.194;2024-02-04T12:27:59;0.60;;;0.60;;
4244;SDS011;2136;48.502;9.194;2024-02-04T12:30:28;2.30;;;0.63;;
4244;SDS011;2136;48.502;9.194;2024-02-04T12:32:56;0.80;;;0.70;;
4244;SDS011;2136;48.502;9.194;2024-02-04T12:35:23;1.03;;;0.70;;
4244;SDS011;2136;48.502;9.194;2024-02-04T12:37:52;1.07;;;1.07;;
4244;SDS011;2136;48.502;9.194;2024-02-04T12:40:20;0.83;;;0.83;;
4244;SDS011;2136;48.502;9.194;2024-02-04T12:42:51;1.03;;;0.70;;
4244;SDS011;2136;48.502;9.194;2024-02-04T12:45:19;0.70;;;0.70;;
4244;SDS011;2136;48.502;9.194;2024-02-04T12:47:48;0.87;;;0.87;;
4244;SDS011;2136;48.502;9.194;2024-02-04T12:50:16;0.50;;;0.50;;
4244;SDS011;2136;48.502;9.194;2024-02-04T12:52:44;1.53;;;0.67;;
4244;SDS011;2136;48.502;9.194;2024-02-04T12:55:20;0.90;;;0.70;;
4244;SDS011;2136;48.502;9.194;2024-02-04T12:57:49;5.90;;;0.80;;
4244;SDS011;2136;48.502;9.194;2024-02-04T13:00:17;0.80;;;0.77;;
4244;SDS011;2136;48.502;9.194;2024-02-04T13:02:44;0.60;;;0.60;;
4244;SDS011;2136;48.502;9.194;2024-02-04T13:05:24;3.60;;;0.87;;
4244;SDS011;2136;48.502;9.194;2024-02-04T13:07:51;1.37;;;0.77;;
4244;SDS011;2136;48.502;9.194;2024-02-04T13:10:22;1.00;;;0.90;;
4244;SDS011;2136;48.502;9.194;2024-02-04T13:12:59;0.90;;;0.90;;
4244;SDS011;2136;48.502;9.194;2024-02-04T13:15:26;0.97;;;0.50;;
4244;SDS011;2136;48.502;9.194;2024-02-04T13:17:54;0.97;;;0.63;;
4244;SDS011;2136;48.502;9.194;2024-02-04T13:20:21;0.70;;;0.70;;
4244;SDS011;2136;48.502;9.194;2024-02-04T13:22:48;1.40;;;0.80;;
4244;SDS011;2136;48.502;9.194;2024-02-04T13:25:15;0.60;;;0.60;;
4244;SDS011;2136;48.502;9.194;2024-02-04T13:27:43;0.60;;;0.60;;
4244;SDS011;2136;48.502;9.194;2024-02-04T13:30:10;0.70;;;0.70;;
4244;SDS011;2136;48.502;9.194;2024-02-04T13:32:38;0.80;;;0.70;;
4244;SDS011;2136;48.502;9.194;2024-02-04T13:35:06;0.60;;;0.60;;
4244;SDS011;2136;48.502;9.194;2024-02-04T13:37:34;0.63;;;0.60;;
4244;SDS011;2136;48.502;9.194;2024-02-04T13:40:02;0.50;;;0.50;;
4244;SDS011;2136;48.502;9.194;2024-02-04T13:42:30;0.50;;;0.50;;
4244;SDS011;2136;48.502;9.194;2024-02-04T13:44:59;0.60;;;0.60;;
4244;SDS011;2136;48.502;9.194;2024-02-04T13:47:27;0.70;;;0.70;;
4244;SDS011;2136;48.502;9.194;2024-02-04T13:49:54;0.80;;;0.60;;
4244;SDS011;2136;48.502;9.194;2024-02-04T13:52:21;0.60;;;0.60;;
4244;SDS011;2136;48.502;9.194;2024-02-04T13:54:48;0.70;;;0.70;;
4244;SDS011;2136;48.502;9.194;2024-02-04T13:57:15;0.60;;;0.60;;
4244;SDS011;2136;48.502;9.194;2024-02-04T13:59:42;0.63;;;0.63;;
4244;SDS011;2136;48.502;9.194;2024-02-04T14:02:10;0.90;;;0.60;;
4244;SDS011;2136;48.502;9.194;2024-02-04T14:04:37;1.17;;;0.57;;
4244;SDS011;2136;48.502;9.194;2024-02-04T14:07:04;0.60;;;0.60;;
4244;SDS011;2136;48.502;9.194;2024-02-04T14:09:31;0.50;;;0.50;;
4244;SDS011;2136;48.502;9.194;2024-02-04T14:11:58;0.60;;;0.60;;
4244;SDS011;2136;48.502;9.194;2024-02-04T14:14:24;1.10;;;1.10;;
4244;SDS011;2136;48.502;9.194;2024-02-04T14:16:50;0.87;;;0.70;;
4244;SDS011;2136;48.502;9.194;2024-02-04T14:19:19;0.77;;;0.77;;
4244;SDS011;2136;48.502;9.194;2024-02-04T14:21:45;1.17;;;0.80;;
4244;SDS011;2136;48.502;9.194;2024-02-04T14:24:12;1.10;;;1.00;;
4244;SDS011;2136;48.502;9.194;2024-02-04T14:26:39;0.73;;;0.73;;
4244;SDS011;2136;48.502;9.194;2024-02-04T14:29:07;1.00;;;0.90;;
4244;SDS011;2136;48.502;9.194;2024-02-04T14:31:34;0.83;;;0.73;;
4244;SDS011;2136;48.502;9.194;2024-02-04T14:34:01;1.20;;;1.03;;
4244;SDS011;2136;48.502;9.194;2024-02-04T14:36:29;1.37;;;0.73;;
4244;SDS011;2136;48.502;9.194;2024-02-04T14:38:56;0.90;;;0.73;;
4244;SDS011;2136;48.502;9.194;2024-02-04T14:41:23;0.60;;;0.60;;
4244;SDS011;2136;48.502;9.194;2024-02-04T14:43:50;0.60;;;0.60;;
4244;SDS011;2136;48.502;9.194;2024-02-04T14:46:17;0.70;;;0.70;;
4244;SDS011;2136;48.502;9.194;2024-02-04T14:48:44;0.77;;;0.77;;
4244;SDS011;2136;48.502;9.194;2024-02-04T14:51:10;0.80;;;0.80;;
4244;SDS011;2136;48.502;9.194;2024-02-04T14:53:38;0.70;;;0.70;;
4244;SDS011;2136;48.502;9.194;2024-02-04T14:56:05;0.90;;;0.90;;
4244;SDS011;2136;48.502;9.194;2024-02-04T14:58:33;0.97;;;0.70;;
4244;SDS011;2136;48.502;9.194;2024-02-04T15:01:02;4.57;;;0.77;;
4244;SDS011;2136;48.502;9.194;2024-02-04T15:03:29;0.70;;;0.70;;
4244;SDS011;2136;48.502;9.194;2024-02-04T15:05:56;4.30;;;0.70;;
4244;SDS011;2136;48.502;9.194;2024-02-04T15:08:22;4.00;;;1.00;;
4244;SDS011;2136;48.502;9.194;2024-02-04T15:10:51;1.00;;;0.90;;
4244;SDS011;2136;48.502;9.194;2024-02-04T15:13:18;0.70;;;0.70;;
4244;SDS011;2136;48.502;9.194;2024-02-04T15:15:45;0.97;;;0.77;;
4244;SDS011;2136;48.502;9.194;2024-02-04T15:18:13;0.93;;;0.93;;
4244;SDS011;2136;48.502;9.194;2024-02-04T15:20:40;1.00;;;0.77;;